createdAt,value
2023-02-03T00:00:30.372Z,11.63
2023-02-03T00:01:30.373Z,11.54
2023-02-03T00:02:30.376Z,11.54
2023-02-03T00:03:30.361Z,11.63
2023-02-03T00:04:30.370Z,11.44
2023-02-03T00:05:30.383Z,11.63
2023-02-03T00:06:30.365Z,11.44
2023-02-03T00:07:30.357Z,11.54
2023-02-03T00:08:30.364Z,11.54
2023-02-03T00:09:30.355Z,11.54
2023-02-03T00:10:30.364Z,11.54
2023-02-03T00:11:30.354Z,11.54
2023-02-03T00:12:30.358Z,11.54
2023-02-03T00:13:30.351Z,11.54
2023-02-03T00:14:30.359Z,11.54
2023-02-03T00:15:30.377Z,11.54
2023-02-03T00:16:30.397Z,11.54
2023-02-03T00:17:30.352Z,11.54
2023-02-03T00:18:30.355Z,11.54
2023-02-03T00:19:30.347Z,11.54
2023-02-03T00:20:30.359Z,11.54
2023-02-03T00:21:30.362Z,11.54
2023-02-03T00:22:30.350Z,11.54
2023-02-03T00:23:30.345Z,11.54
2023-02-03T00:24:30.349Z,11.54
2023-02-03T00:25:30.341Z,11.54
2023-02-03T00:26:30.345Z,11.54
2023-02-03T00:27:30.337Z,11.54
2023-02-03T00:28:30.344Z,11.44
2023-02-03T00:29:30.337Z,11.54
2023-02-03T00:30:30.342Z,11.44
2023-02-03T00:31:30.465Z,11.44
2023-02-03T00:32:30.446Z,11.54
2023-02-03T00:33:30.332Z,11.54
2023-02-03T00:34:30.386Z,11.54
2023-02-03T00:35:30.332Z,11.54
2023-02-03T00:36:30.335Z,11.44
2023-02-03T00:37:30.332Z,11.54
2023-02-03T00:38:30.337Z,11.54
2023-02-03T00:39:30.345Z,11.54
2023-02-03T00:40:30.344Z,11.44
2023-02-03T00:41:30.328Z,11.44
2023-02-03T00:42:30.333Z,11.44
2023-02-03T00:43:30.324Z,11.54
2023-02-03T00:44:30.334Z,11.54
2023-02-03T00:45:30.373Z,11.54
2023-02-03T00:46:30.330Z,11.44
2023-02-03T00:47:30.344Z,11.44
2023-02-03T00:48:30.326Z,11.54
2023-02-03T00:49:30.318Z,11.44
2023-02-03T00:50:30.333Z,11.44
2023-02-03T00:51:30.315Z,11.34
2023-02-03T00:52:30.327Z,11.44
2023-02-03T00:53:30.318Z,11.44
2023-02-03T00:54:32.042Z,11.44
2023-02-03T00:55:30.318Z,11.44
2023-02-03T00:56:30.319Z,11.44
2023-02-03T00:57:30.311Z,11.44
2023-02-03T00:58:30.321Z,11.44
2023-02-03T00:59:30.310Z,11.44
2023-02-03T01:00:30.316Z,11.34
2023-02-03T01:01:30.379Z,11.44
2023-02-03T01:02:30.335Z,11.34
2023-02-03T01:03:30.370Z,11.44
2023-02-03T01:04:30.314Z,11.34
2023-02-03T01:05:30.378Z,11.44
2023-02-03T01:06:30.308Z,11.34
2023-02-03T01:07:30.298Z,11.44
2023-02-03T01:08:30.305Z,11.44
2023-02-03T01:09:30.298Z,11.44
2023-02-03T01:10:30.321Z,11.44
2023-02-03T01:11:30.319Z,11.44
2023-02-03T01:12:30.301Z,11.44
2023-02-03T01:13:30.296Z,11.54
2023-02-03T01:14:30.300Z,11.44
2023-02-03T01:15:30.314Z,11.34
2023-02-03T01:16:30.360Z,11.24
2023-02-03T01:17:30.304Z,11.44
2023-02-03T01:18:30.319Z,11.44
2023-02-03T01:19:30.312Z,11.44
2023-02-03T01:20:30.300Z,11.34
2023-02-03T01:21:30.287Z,11.44
2023-02-03T01:22:30.297Z,11.34
2023-02-03T01:23:30.286Z,11.44
2023-02-03T01:24:30.292Z,11.34
2023-02-03T01:25:30.284Z,11.34
2023-02-03T01:26:30.290Z,11.24
2023-02-03T01:27:30.281Z,11.24
2023-02-03T01:28:30.289Z,11.34
2023-02-03T01:29:30.281Z,11.63
2023-02-03T01:30:30.413Z,11.54
2023-02-03T01:31:30.506Z,11.54
2023-02-03T01:32:30.290Z,11.34
2023-02-03T01:33:30.276Z,11.34
2023-02-03T01:34:30.289Z,11.24
2023-02-03T01:35:30.293Z,11.54
2023-02-03T01:36:30.297Z,11.63
2023-02-03T01:37:30.273Z,11.63
2023-02-03T01:38:30.279Z,11.63
2023-02-03T01:39:30.469Z,11.63
2023-02-03T01:40:30.276Z,11.54
2023-02-03T01:41:30.270Z,11.54
2023-02-03T01:42:30.276Z,11.44
2023-02-03T01:43:30.276Z,11.34
2023-02-03T01:44:30.272Z,11.54
2023-02-03T01:45:30.268Z,11.63
2023-02-03T01:46:30.421Z,11.54
2023-02-03T01:47:30.259Z,11.54
2023-02-03T01:48:30.268Z,11.34
2023-02-03T01:49:30.270Z,11.54
2023-02-03T01:50:30.265Z,11.63
2023-02-03T01:51:30.279Z,11.44
2023-02-03T01:52:30.262Z,11.54
2023-02-03T01:53:30.256Z,11.63
2023-02-03T01:54:30.259Z,11.92
2023-02-03T01:55:30.252Z,11.92
2023-02-03T01:56:30.260Z,11.72
2023-02-03T01:57:30.251Z,11.63
2023-02-03T01:58:30.272Z,11.54
2023-02-03T01:59:30.249Z,11.54
2023-02-03T02:00:30.258Z,11.92
2023-02-03T02:01:30.352Z,11.92
2023-02-03T02:02:30.321Z,11.92
2023-02-03T02:03:30.245Z,11.92
2023-02-03T02:04:30.259Z,11.54
2023-02-03T02:05:30.243Z,11.72
2023-02-03T02:06:30.257Z,11.72
2023-02-03T02:07:30.326Z,11.63
2023-02-03T02:08:30.247Z,11.92
2023-02-03T02:09:30.242Z,11.72
2023-02-03T02:10:30.248Z,11.92
2023-02-03T02:11:30.237Z,11.82
2023-02-03T02:12:30.244Z,11.82
2023-02-03T02:13:30.237Z,11.72
2023-02-03T02:14:30.243Z,11.63
2023-02-03T02:15:30.281Z,11.82
2023-02-03T02:16:30.238Z,11.72
2023-02-03T02:17:30.253Z,11.72
2023-02-03T02:18:30.231Z,11.92
2023-02-03T02:19:30.237Z,11.82
2023-02-03T02:20:30.229Z,11.82
2023-02-03T02:21:30.235Z,11.82
2023-02-03T02:22:30.230Z,11.82
2023-02-03T02:23:30.254Z,11.82
2023-02-03T02:24:30.224Z,11.82
2023-02-03T02:25:30.230Z,11.82
2023-02-03T02:26:30.224Z,11.72
2023-02-03T02:27:30.227Z,11.82
2023-02-03T02:28:30.226Z,11.72
2023-02-03T02:29:30.234Z,11.82
2023-02-03T02:30:30.225Z,11.92
2023-02-03T02:31:30.328Z,11.82
2023-02-03T02:32:30.219Z,11.92
2023-02-03T02:33:30.232Z,11.82
2023-02-03T02:34:30.218Z,11.82
2023-02-03T02:35:30.231Z,11.82
2023-02-03T02:36:30.215Z,11.82
2023-02-03T02:37:30.222Z,11.82
2023-02-03T02:38:30.213Z,11.92
2023-02-03T02:39:30.247Z,11.82
2023-02-03T02:40:30.209Z,11.82
2023-02-03T02:41:30.218Z,11.63
2023-02-03T02:42:30.209Z,11.72
2023-02-03T02:43:30.211Z,11.63
2023-02-03T02:44:30.212Z,11.72
2023-02-03T02:45:30.230Z,11.72
2023-02-03T02:46:30.284Z,11.72
2023-02-03T02:47:30.210Z,11.72
2023-02-03T02:48:30.212Z,11.72
2023-02-03T02:49:30.244Z,11.82
2023-02-03T02:50:30.205Z,11.72
2023-02-03T02:51:30.206Z,11.82
2023-02-03T02:52:30.197Z,11.82
2023-02-03T02:53:30.202Z,11.72
2023-02-03T02:54:30.198Z,11.82
2023-02-03T02:55:30.227Z,11.82
2023-02-03T02:56:30.195Z,11.82
2023-02-03T02:57:30.204Z,11.82
2023-02-03T02:58:30.193Z,11.82
2023-02-03T02:59:30.201Z,11.72
2023-02-03T03:00:30.191Z,11.82
2023-02-03T03:01:30.301Z,11.82
2023-02-03T03:02:30.188Z,11.82
2023-02-03T03:03:30.191Z,11.72
2023-02-03T03:04:30.306Z,11.72
2023-02-03T03:05:30.194Z,11.82
2023-02-03T03:06:30.185Z,11.72
2023-02-03T03:07:30.189Z,11.72
2023-02-03T03:08:30.184Z,11.72
2023-02-03T03:09:30.246Z,11.82
2023-02-03T03:10:30.181Z,11.72
2023-02-03T03:11:30.213Z,11.82
2023-02-03T03:12:30.177Z,11.72
2023-02-03T03:13:30.193Z,11.82
2023-02-03T03:14:30.175Z,11.72
2023-02-03T03:15:30.179Z,11.82
2023-02-03T03:16:30.185Z,11.82
2023-02-03T03:17:30.191Z,11.72
2023-02-03T03:18:30.175Z,11.72
2023-02-03T03:19:30.177Z,11.82
2023-02-03T03:20:30.170Z,11.72
2023-02-03T03:21:30.177Z,11.72
2023-02-03T03:22:30.178Z,11.82
2023-02-03T03:23:30.176Z,11.72
2023-02-03T03:24:30.183Z,11.72
2023-02-03T03:25:30.183Z,11.72
2023-02-03T03:26:30.166Z,11.82
2023-02-03T03:27:30.198Z,11.82
2023-02-03T03:28:30.162Z,11.82
2023-02-03T03:29:30.193Z,11.82
2023-02-03T03:30:30.156Z,11.82
2023-02-03T03:31:30.299Z,11.72
2023-02-03T03:32:30.159Z,11.72
2023-02-03T03:33:30.164Z,11.82
2023-02-03T03:34:30.156Z,11.72
2023-02-03T03:35:30.161Z,11.72
2023-02-03T03:36:30.150Z,11.72
2023-02-03T03:37:30.180Z,11.72
2023-02-03T03:38:30.151Z,11.82
2023-02-03T03:39:30.164Z,11.82
2023-02-03T03:40:30.154Z,11.72
2023-02-03T03:41:30.159Z,11.82
2023-02-03T03:42:31.743Z,11.82
2023-02-03T03:43:30.207Z,11.82
2023-02-03T03:44:30.173Z,11.82
2023-02-03T03:45:30.156Z,11.72
2023-02-03T03:46:30.270Z,11.72
2023-02-03T03:47:30.149Z,11.72
2023-02-03T03:48:30.152Z,11.82
2023-02-03T03:49:30.152Z,11.82
2023-02-03T03:50:30.140Z,11.92
2023-02-03T03:51:30.146Z,11.72
2023-02-03T03:52:30.139Z,11.92
2023-02-03T03:53:30.144Z,11.82
2023-02-03T03:54:30.136Z,11.82
2023-02-03T03:55:30.141Z,11.82
2023-02-03T03:56:30.134Z,11.82
2023-02-03T03:57:30.140Z,11.82
2023-02-03T03:58:30.132Z,11.82
2023-02-03T03:59:30.167Z,11.82
2023-02-03T04:00:30.127Z,11.72
2023-02-03T04:01:30.304Z,11.92
2023-02-03T04:02:30.220Z,11.82
2023-02-03T04:03:30.252Z,11.82
2023-02-03T04:04:30.126Z,11.72
2023-02-03T04:05:30.132Z,11.72
2023-02-03T04:06:30.131Z,11.72
2023-02-03T04:07:30.130Z,11.92
2023-02-03T04:08:30.121Z,11.72
2023-02-03T04:09:30.128Z,11.63
2023-02-03T04:10:30.129Z,11.63
2023-02-03T04:11:30.127Z,11.82
2023-02-03T04:12:30.117Z,11.72
2023-02-03T04:13:30.128Z,11.82
2023-02-03T04:14:30.175Z,11.92
2023-02-03T04:15:30.155Z,11.72
2023-02-03T04:16:30.238Z,11.82
2023-02-03T04:17:30.121Z,11.82
2023-02-03T04:18:30.126Z,11.72
2023-02-03T04:19:30.131Z,11.82
2023-02-03T04:20:30.153Z,11.72
2023-02-03T04:21:30.121Z,11.72
2023-02-03T04:22:30.107Z,11.72
2023-02-03T04:23:30.112Z,11.82
2023-02-03T04:24:30.106Z,11.72
2023-02-03T04:25:30.165Z,11.82
2023-02-03T04:26:30.112Z,11.72
2023-02-03T04:27:30.114Z,11.82
2023-02-03T04:28:30.101Z,11.72
2023-02-03T04:29:30.106Z,11.72
2023-02-03T04:30:30.389Z,11.82
2023-02-03T04:31:30.234Z,11.82
2023-02-03T04:32:30.096Z,11.82
2023-02-03T04:33:30.106Z,11.72
2023-02-03T04:34:30.107Z,11.72
2023-02-03T04:35:30.103Z,11.82
2023-02-03T04:36:30.097Z,11.92
2023-02-03T04:37:30.106Z,11.82
2023-02-03T04:38:30.094Z,11.63
2023-02-03T04:39:30.094Z,11.82
2023-02-03T04:40:30.394Z,11.82
2023-02-03T04:41:30.093Z,11.82
2023-02-03T04:42:30.088Z,11.82
2023-02-03T04:43:30.089Z,11.82
2023-02-03T04:44:30.082Z,11.92
2023-02-03T04:45:30.160Z,11.82
2023-02-03T04:46:30.080Z,11.92
2023-02-03T04:47:30.107Z,11.82
2023-02-03T04:48:30.078Z,11.82
2023-02-03T04:49:30.084Z,11.92
2023-02-03T04:50:30.077Z,12.02
2023-02-03T04:51:30.090Z,12.02
2023-02-03T04:52:30.078Z,11.82
2023-02-03T04:53:30.081Z,12.02
2023-02-03T04:54:30.083Z,11.63
2023-02-03T04:55:30.093Z,11.82
2023-02-03T04:56:30.072Z,11.72
2023-02-03T04:57:30.077Z,12.02
2023-02-03T04:58:30.080Z,11.72
2023-02-03T04:59:30.080Z,11.92
2023-02-03T05:00:30.556Z,11.72
2023-02-03T05:01:30.075Z,11.72
2023-02-03T05:02:30.065Z,11.72
2023-02-03T05:03:30.195Z,11.82
2023-02-03T05:04:30.065Z,11.72
2023-02-03T05:05:30.070Z,11.72
2023-02-03T05:06:30.089Z,11.63
2023-02-03T05:07:30.066Z,11.72
2023-02-03T05:08:30.058Z,12.31
2023-02-03T05:09:30.064Z,12.02
2023-02-03T05:10:30.061Z,11.63
2023-02-03T05:11:30.074Z,11.82
2023-02-03T05:12:30.068Z,11.72
2023-02-03T05:13:30.129Z,11.82
2023-02-03T05:14:30.052Z,11.82
2023-02-03T05:15:30.079Z,11.82
2023-02-03T05:16:30.210Z,11.92
2023-02-03T05:17:30.057Z,11.82
2023-02-03T05:18:30.047Z,11.63
2023-02-03T05:19:30.077Z,11.72
2023-02-03T05:20:30.048Z,11.82
2023-02-03T05:21:30.058Z,11.63
2023-02-03T05:22:30.048Z,11.72
2023-02-03T05:23:30.059Z,11.72
2023-02-03T05:24:30.041Z,11.82
2023-02-03T05:25:30.052Z,11.72
2023-02-03T05:26:30.058Z,11.72
2023-02-03T05:27:30.047Z,11.72
2023-02-03T05:28:30.040Z,11.82
2023-02-03T05:29:30.046Z,11.82
2023-02-03T05:30:30.480Z,11.72
2023-02-03T05:31:30.141Z,11.82
2023-02-03T05:32:30.035Z,11.72
2023-02-03T05:33:30.052Z,11.54
2023-02-03T05:34:30.034Z,11.54
2023-02-03T05:35:30.063Z,11.63
2023-02-03T05:36:30.041Z,11.44
2023-02-03T05:37:30.042Z,11.34
2023-02-03T05:38:30.034Z,11.63
2023-02-03T05:39:30.038Z,11.34
2023-02-03T05:40:30.253Z,11.34
2023-02-03T05:41:30.034Z,11.44
2023-02-03T05:42:30.025Z,11.34
2023-02-03T05:43:30.029Z,11.44
2023-02-03T05:44:30.024Z,11.54
2023-02-03T05:45:30.061Z,11.54
2023-02-03T05:46:30.040Z,11.34
2023-02-03T05:47:30.027Z,11.44
2023-02-03T05:48:30.025Z,11.54
2023-02-03T05:49:30.034Z,11.54
2023-02-03T05:50:30.016Z,11.54
2023-02-03T05:51:30.061Z,11.44
2023-02-03T05:52:30.019Z,11.54
2023-02-03T05:53:30.019Z,11.54
2023-02-03T05:54:30.011Z,11.54
2023-02-03T05:55:30.018Z,11.54
2023-02-03T05:56:30.014Z,11.54
2023-02-03T05:57:32.172Z,11.54
2023-02-03T05:58:30.011Z,11.44
2023-02-03T05:59:30.014Z,11.34
2023-02-03T06:00:30.142Z,11.44
2023-02-03T06:01:30.010Z,11.54
2023-02-03T06:02:30.002Z,11.63
2023-02-03T06:03:30.086Z,11.63
2023-02-03T06:04:30.053Z,11.54
2023-02-03T06:05:30.007Z,11.54
2023-02-03T06:06:30.000Z,11.63
2023-02-03T06:07:30.026Z,11.63
2023-02-03T06:08:29.996Z,11.54
2023-02-03T06:09:30.005Z,11.63
2023-02-03T06:10:30.217Z,11.54
2023-02-03T06:11:30.010Z,11.44
2023-02-03T06:12:29.997Z,11.63
2023-02-03T06:13:30.006Z,11.54
2023-02-03T06:14:29.991Z,11.44
2023-02-03T06:15:29.996Z,11.54
2023-02-03T06:16:30.076Z,11.54
2023-02-03T06:17:29.996Z,11.44
2023-02-03T06:18:29.987Z,11.44
2023-02-03T06:19:29.994Z,11.54
2023-02-03T06:20:30.158Z,11.54
2023-02-03T06:21:29.992Z,11.54
2023-02-03T06:22:29.983Z,11.54
2023-02-03T06:23:30.016Z,11.54
2023-02-03T06:24:29.986Z,11.54
2023-02-03T06:25:29.987Z,11.54
2023-02-03T06:26:29.978Z,11.54
2023-02-03T06:27:29.985Z,11.44
2023-02-03T06:28:29.976Z,11.44
2023-02-03T06:29:29.983Z,11.54
2023-02-03T06:30:30.314Z,11.44
2023-02-03T06:31:30.082Z,11.54
2023-02-03T06:32:29.971Z,11.44
2023-02-03T06:33:29.969Z,11.54
2023-02-03T06:34:29.978Z,11.44
2023-02-03T06:35:29.972Z,11.54
2023-02-03T06:36:29.974Z,11.54
2023-02-03T06:37:29.966Z,11.54
2023-02-03T06:38:29.977Z,11.44
2023-02-03T06:39:30.001Z,11.54
2023-02-03T06:40:30.528Z,11.44
2023-02-03T06:41:29.967Z,11.44
2023-02-03T06:42:29.968Z,11.54
2023-02-03T06:43:29.957Z,11.44
2023-02-03T06:44:29.971Z,11.54
2023-02-03T06:45:29.957Z,11.44
2023-02-03T06:46:30.155Z,11.44
2023-02-03T06:47:29.972Z,11.34
2023-02-03T06:48:29.964Z,11.34
2023-02-03T06:49:29.952Z,11.44
2023-02-03T06:50:30.266Z,11.54
2023-02-03T06:51:29.952Z,11.54
2023-02-03T06:52:29.960Z,11.34
2023-02-03T06:53:29.951Z,11.44
2023-02-03T06:54:29.960Z,11.34
2023-02-03T06:55:29.981Z,11.44
2023-02-03T06:56:29.958Z,11.44
2023-02-03T06:57:29.945Z,11.44
2023-02-03T06:58:29.992Z,11.54
2023-02-03T06:59:29.943Z,11.54
2023-02-03T07:00:30.302Z,11.44
2023-02-03T07:01:30.090Z,11.44
2023-02-03T07:02:30.071Z,11.54
2023-02-03T07:03:29.942Z,11.54
2023-02-03T07:04:29.942Z,11.44
2023-02-03T07:05:29.935Z,11.54
2023-02-03T07:06:29.945Z,11.54
2023-02-03T07:07:29.933Z,11.54
2023-02-03T07:08:29.938Z,11.44
2023-02-03T07:09:29.932Z,11.54
2023-02-03T07:10:30.268Z,11.44
2023-02-03T07:11:29.968Z,11.44
2023-02-03T07:12:29.935Z,11.44
2023-02-03T07:13:29.962Z,11.54
2023-02-03T07:14:29.931Z,11.54
2023-02-03T07:15:29.943Z,11.54
2023-02-03T07:16:29.933Z,11.44
2023-02-03T07:17:29.927Z,11.54
2023-02-03T07:18:46.274Z,11.44
2023-02-03T07:19:29.921Z,11.44
2023-02-03T07:20:30.374Z,11.44
2023-02-03T07:21:29.919Z,11.44
2023-02-03T07:22:29.924Z,11.44
2023-02-03T07:23:29.916Z,11.44
2023-02-03T07:24:29.923Z,11.44
2023-02-03T07:25:29.915Z,11.44
2023-02-03T07:26:29.919Z,11.44
2023-02-03T07:27:29.934Z,11.54
2023-02-03T07:28:29.916Z,11.34
2023-02-03T07:29:29.909Z,11.44
2023-02-03T07:30:30.364Z,11.44
2023-02-03T07:31:30.029Z,11.54
2023-02-03T07:32:31.822Z,11.34
2023-02-03T07:33:29.905Z,11.54
2023-02-03T07:34:29.949Z,11.44
2023-02-03T07:35:29.900Z,11.44
2023-02-03T07:36:29.907Z,11.54
2023-02-03T07:37:29.899Z,11.44
2023-02-03T07:38:29.905Z,11.34
2023-02-03T07:39:29.897Z,11.44
2023-02-03T07:40:30.091Z,11.54
2023-02-03T07:41:29.895Z,11.44
2023-02-03T07:42:29.904Z,11.34
2023-02-03T07:43:29.914Z,11.44
2023-02-03T07:44:29.900Z,11.44
2023-02-03T07:45:29.895Z,11.54
2023-02-03T07:46:30.079Z,11.54
2023-02-03T07:47:29.891Z,11.54
2023-02-03T07:48:29.901Z,11.54
2023-02-03T07:49:29.890Z,11.54
2023-02-03T07:50:30.265Z,11.44
2023-02-03T07:51:29.885Z,11.44
2023-02-03T07:52:29.892Z,11.54
2023-02-03T07:53:29.895Z,11.44
2023-02-03T07:54:29.899Z,11.44
2023-02-03T07:55:29.884Z,11.44
2023-02-03T07:56:29.890Z,11.54
2023-02-03T07:57:29.885Z,11.54
2023-02-03T07:58:29.884Z,11.54
2023-02-03T07:59:29.912Z,11.54
2023-02-03T08:00:30.240Z,11.44
2023-02-03T08:01:29.961Z,11.54
2023-02-03T08:02:29.883Z,11.54
2023-02-03T08:03:29.881Z,11.44
2023-02-03T08:04:30.009Z,11.44
2023-02-03T08:05:29.873Z,11.54
2023-02-03T08:06:29.877Z,11.44
2023-02-03T08:07:29.874Z,11.44
2023-02-03T08:08:29.873Z,11.54
2023-02-03T08:09:29.867Z,11.54
2023-02-03T08:10:30.371Z,11.54
2023-02-03T08:11:29.865Z,11.54
2023-02-03T08:12:29.874Z,11.54
2023-02-03T08:13:29.862Z,11.54
2023-02-03T08:14:29.869Z,11.54
2023-02-03T08:15:29.882Z,11.54
2023-02-03T08:16:29.929Z,11.54
2023-02-03T08:17:29.857Z,11.54
2023-02-03T08:18:32.550Z,11.54
2023-02-03T08:19:29.855Z,11.54
2023-02-03T08:20:30.342Z,11.54
2023-02-03T08:21:29.853Z,11.63
2023-02-03T08:22:29.858Z,11.54
2023-02-03T08:23:29.849Z,11.54
2023-02-03T08:24:29.859Z,11.44
2023-02-03T08:25:29.859Z,11.63
2023-02-03T08:26:29.863Z,11.54
2023-02-03T08:27:29.846Z,11.54
2023-02-03T08:28:29.852Z,11.54
2023-02-03T08:29:29.847Z,11.54
2023-02-03T08:30:30.291Z,11.54
2023-02-03T08:31:30.009Z,11.54
2023-02-03T08:32:29.848Z,11.54
2023-02-03T08:33:29.843Z,11.54
2023-02-03T08:34:29.850Z,11.54
2023-02-03T08:35:29.846Z,11.54
2023-02-03T08:36:29.851Z,11.63
2023-02-03T08:37:29.837Z,11.63
2023-02-03T08:38:29.849Z,11.63
2023-02-03T08:39:29.832Z,11.34
2023-02-03T08:40:30.373Z,11.54
2023-02-03T08:41:29.833Z,11.54
2023-02-03T08:42:29.836Z,11.63
2023-02-03T08:43:29.828Z,11.54
2023-02-03T08:44:29.836Z,11.54
2023-02-03T08:45:29.893Z,11.54
2023-02-03T08:46:29.834Z,11.63
2023-02-03T08:47:29.853Z,11.63
2023-02-03T08:48:29.831Z,11.54
2023-02-03T08:49:29.822Z,11.63
2023-02-03T08:50:30.211Z,11.44
2023-02-03T08:51:29.819Z,11.54
2023-02-03T08:52:29.832Z,11.54
2023-02-03T08:53:29.818Z,11.54
2023-02-03T08:54:29.833Z,11.63
2023-02-03T08:55:29.817Z,11.63
2023-02-03T08:56:29.823Z,11.54
2023-02-03T08:57:29.816Z,11.63
2023-02-03T08:58:29.818Z,11.63
2023-02-03T08:59:29.811Z,11.63
2023-02-03T09:00:30.235Z,11.63
2023-02-03T09:01:29.850Z,11.63
2023-02-03T09:02:29.824Z,11.63
2023-02-03T09:03:29.836Z,11.63
2023-02-03T09:04:29.878Z,11.54
2023-02-03T09:05:29.877Z,11.63
2023-02-03T09:06:29.820Z,11.63
2023-02-03T09:07:29.809Z,11.54
2023-02-03T09:08:29.809Z,11.44
2023-02-03T09:09:29.803Z,11.54
2023-02-03T09:10:30.218Z,11.44
2023-02-03T09:11:29.800Z,11.44
2023-02-03T09:12:29.809Z,11.63
2023-02-03T09:13:29.805Z,11.44
2023-02-03T09:14:29.821Z,11.54
2023-02-03T09:15:29.796Z,11.54
2023-02-03T09:16:29.876Z,11.44
2023-02-03T09:17:29.817Z,11.54
2023-02-03T09:18:29.798Z,11.54
2023-02-03T09:19:29.813Z,11.44
2023-02-03T09:20:30.136Z,11.54
2023-02-03T09:21:34.036Z,11.63
2023-02-03T09:22:29.799Z,11.63
2023-02-03T09:23:29.786Z,11.63
2023-02-03T09:24:29.793Z,11.63
2023-02-03T09:25:29.804Z,11.63
2023-02-03T09:26:29.798Z,11.63
2023-02-03T09:27:29.786Z,11.63
2023-02-03T09:28:29.792Z,11.44
2023-02-03T09:29:29.786Z,11.63
2023-02-03T09:30:30.210Z,11.63
2023-02-03T09:31:29.817Z,11.54
2023-02-03T09:32:29.784Z,11.44
2023-02-03T09:33:29.779Z,11.63
2023-02-03T09:34:29.791Z,11.54
2023-02-03T09:35:29.798Z,11.63
2023-02-03T09:36:29.781Z,11.54
2023-02-03T09:37:29.970Z,11.54
2023-02-03T09:38:29.794Z,11.44
2023-02-03T09:39:29.769Z,11.54
2023-02-03T09:40:30.253Z,11.44
2023-02-03T09:41:29.768Z,11.54
2023-02-03T09:42:29.774Z,11.44
2023-02-03T09:43:29.764Z,11.54
2023-02-03T09:44:29.771Z,11.63
2023-02-03T09:45:29.763Z,11.54
2023-02-03T09:46:29.775Z,11.54
2023-02-03T09:47:29.789Z,11.54
2023-02-03T09:48:29.767Z,11.44
2023-02-03T09:49:29.759Z,11.63
2023-02-03T09:50:30.139Z,11.54
2023-02-03T09:51:29.796Z,11.44
2023-02-03T09:52:29.763Z,11.63
2023-02-03T09:53:29.761Z,11.44
2023-02-03T09:54:29.762Z,11.54
2023-02-03T09:55:29.769Z,11.34
2023-02-03T09:56:29.758Z,11.44
2023-02-03T09:57:29.761Z,11.54
2023-02-03T09:58:29.758Z,11.54
2023-02-03T09:59:29.747Z,11.54
2023-02-03T10:00:30.040Z,11.44
2023-02-03T10:01:29.829Z,11.54
2023-02-03T10:02:29.822Z,11.54
2023-02-03T10:03:29.743Z,11.44
2023-02-03T10:04:29.751Z,11.44
2023-02-03T10:05:29.745Z,11.54
2023-02-03T10:06:29.750Z,11.34
2023-02-03T10:07:29.765Z,11.63
2023-02-03T10:08:29.745Z,11.63
2023-02-03T10:09:29.737Z,11.54
2023-02-03T10:10:30.035Z,11.63
2023-02-03T10:11:29.736Z,11.54
2023-02-03T10:12:29.742Z,11.54
2023-02-03T10:13:29.732Z,11.63
2023-02-03T10:14:29.742Z,11.54
2023-02-03T10:15:29.730Z,11.54
2023-02-03T10:16:29.855Z,11.63
2023-02-03T10:17:29.733Z,11.63
2023-02-03T10:18:29.781Z,11.63
2023-02-03T10:19:29.730Z,11.63
2023-02-03T10:20:30.009Z,11.54
2023-02-03T10:21:29.751Z,11.63
2023-02-03T10:22:29.733Z,11.72
2023-02-03T10:23:29.759Z,11.63
2023-02-03T10:24:29.732Z,11.63
2023-02-03T10:25:29.737Z,11.63
2023-02-03T10:26:29.738Z,11.54
2023-02-03T10:27:29.720Z,11.63
2023-02-03T10:28:29.748Z,11.54
2023-02-03T10:29:29.715Z,11.63
2023-02-03T10:30:30.241Z,11.54
2023-02-03T10:31:29.848Z,11.63
2023-02-03T10:32:29.724Z,11.72
2023-02-03T10:33:29.715Z,11.63
2023-02-03T10:34:29.735Z,11.54
2023-02-03T10:35:29.716Z,11.63
2023-02-03T10:36:29.713Z,11.63
2023-02-03T10:37:30.466Z,11.63
2023-02-03T10:38:29.716Z,11.63
2023-02-03T10:39:29.729Z,11.44
2023-02-03T10:40:30.162Z,11.44
2023-02-03T10:41:29.702Z,11.54
2023-02-03T10:42:29.709Z,11.63
2023-02-03T10:43:29.708Z,11.63
2023-02-03T10:44:29.709Z,11.63
2023-02-03T10:45:29.698Z,11.63
2023-02-03T10:46:29.799Z,11.63
2023-02-03T10:47:29.703Z,11.34
2023-02-03T10:48:29.702Z,11.54
2023-02-03T10:49:29.702Z,11.63
2023-02-03T10:50:30.206Z,11.54
2023-02-03T10:51:29.701Z,11.54
2023-02-03T10:52:29.704Z,11.54
2023-02-03T10:53:29.698Z,11.44
2023-02-03T10:54:29.692Z,11.63
2023-02-03T10:55:29.726Z,11.54
2023-02-03T10:56:29.689Z,11.63
2023-02-03T10:57:29.695Z,11.54
2023-02-03T10:58:29.687Z,11.63
2023-02-03T10:59:29.702Z,11.54
2023-02-03T11:00:30.151Z,11.63
2023-02-03T11:01:29.744Z,11.63
2023-02-03T11:02:29.803Z,11.54
2023-02-03T11:03:29.687Z,11.54
2023-02-03T11:04:29.682Z,11.54
2023-02-03T11:05:29.769Z,11.63
2023-02-03T11:06:29.709Z,11.63
2023-02-03T11:07:29.688Z,11.63
2023-02-03T11:08:29.686Z,11.54
2023-02-03T11:09:29.687Z,11.63
2023-02-03T11:10:29.945Z,11.63
2023-02-03T11:11:29.702Z,11.54
2023-02-03T11:12:29.672Z,11.54
2023-02-03T11:13:29.678Z,11.63
2023-02-03T11:14:29.670Z,11.63
2023-02-03T11:15:29.900Z,11.54
2023-02-03T11:16:29.670Z,11.44
2023-02-03T11:17:29.713Z,11.54
2023-02-03T11:18:29.667Z,11.54
2023-02-03T11:19:29.673Z,11.54
2023-02-03T11:20:30.122Z,11.54
2023-02-03T11:21:29.667Z,11.63
2023-02-03T11:22:29.666Z,11.54
2023-02-03T11:23:29.664Z,11.54
2023-02-03T11:24:29.664Z,11.54
2023-02-03T11:25:29.669Z,11.54
2023-02-03T11:26:29.664Z,11.54
2023-02-03T11:27:29.691Z,11.63
2023-02-03T11:28:29.658Z,11.63
2023-02-03T11:29:29.681Z,11.54
2023-02-03T11:30:29.877Z,11.54
2023-02-03T11:31:29.858Z,11.44
2023-02-03T11:32:29.658Z,11.72
2023-02-03T11:33:29.655Z,11.54
2023-02-03T11:34:29.656Z,11.72
2023-02-03T11:35:29.671Z,11.44
2023-02-03T11:36:29.660Z,11.72
2023-02-03T11:37:29.731Z,11.72
2023-02-03T11:38:29.649Z,11.72
2023-02-03T11:39:29.658Z,11.72
2023-02-03T11:40:29.984Z,11.44
2023-02-03T11:41:29.654Z,11.63
2023-02-03T11:42:29.640Z,11.72
2023-02-03T11:43:29.687Z,11.44
2023-02-03T11:44:29.693Z,11.72
2023-02-03T11:45:29.669Z,11.63
2023-02-03T11:46:29.708Z,11.63
2023-02-03T11:47:29.647Z,11.63
2023-02-03T11:48:29.649Z,11.72
2023-02-03T11:49:29.677Z,11.63
2023-02-03T11:50:30.019Z,11.72
2023-02-03T11:51:29.644Z,11.72
2023-02-03T11:52:29.629Z,11.72
2023-02-03T11:53:29.635Z,11.72
2023-02-03T11:54:29.634Z,11.72
2023-02-03T11:55:29.631Z,11.72
2023-02-03T11:56:29.625Z,11.44
2023-02-03T11:57:29.634Z,11.63
2023-02-03T11:58:29.626Z,11.72
2023-02-03T11:59:29.702Z,11.54
2023-02-03T12:00:29.936Z,11.72
2023-02-03T12:01:29.628Z,11.63
2023-02-03T12:02:29.661Z,11.63
2023-02-03T12:03:29.624Z,11.44
2023-02-03T12:04:29.704Z,11.63
2023-02-03T12:05:29.630Z,11.44
2023-02-03T12:06:29.615Z,11.72
2023-02-03T12:07:29.620Z,11.44
2023-02-03T12:08:29.611Z,11.63
2023-02-03T12:09:29.626Z,11.63
2023-02-03T12:10:30.018Z,11.44
2023-02-03T12:11:29.615Z,11.63
2023-02-03T12:12:29.610Z,11.63
2023-02-03T12:13:29.613Z,11.44
2023-02-03T12:14:29.612Z,11.34
2023-02-03T12:15:29.733Z,11.63
2023-02-03T12:16:29.667Z,11.44
2023-02-03T12:17:29.612Z,11.63
2023-02-03T12:18:29.603Z,11.63
2023-02-03T12:19:29.614Z,11.63
2023-02-03T12:20:29.954Z,11.63
2023-02-03T12:21:29.606Z,11.63
2023-02-03T12:22:29.597Z,11.54
2023-02-03T12:23:29.603Z,11.63
2023-02-03T12:24:29.598Z,11.72
2023-02-03T12:25:29.610Z,11.44
2023-02-03T12:26:29.596Z,11.63
2023-02-03T12:27:29.600Z,11.72
2023-02-03T12:28:33.557Z,11.63
2023-02-03T12:29:31.915Z,11.54
2023-02-03T12:30:30.151Z,11.54
2023-02-03T12:31:29.749Z,11.34
2023-02-03T12:32:29.586Z,11.63
2023-02-03T12:33:29.599Z,11.44
2023-02-03T12:34:29.587Z,11.44
2023-02-03T12:35:31.856Z,11.44
2023-02-03T12:36:29.592Z,11.44
2023-02-03T12:37:29.611Z,11.54
2023-02-03T12:38:29.584Z,11.54
2023-02-03T12:39:29.615Z,11.34
2023-02-03T12:40:29.974Z,11.44
2023-02-03T12:41:29.596Z,11.44
2023-02-03T12:42:29.607Z,11.44
2023-02-03T12:43:29.587Z,11.44
2023-02-03T12:44:29.576Z,11.34
2023-02-03T12:45:29.664Z,11.34
2023-02-03T12:46:29.575Z,11.34
2023-02-03T12:47:29.642Z,11.44
2023-02-03T12:48:29.573Z,11.44
2023-02-03T12:49:29.580Z,11.44
2023-02-03T12:50:30.007Z,11.44
2023-02-03T12:51:29.580Z,11.34
2023-02-03T12:52:29.575Z,11.44